TAF PHMK
PHMK 090527Z 0906/1006 05008KT P6SM FEW025 SCT040 FM092000 05014G21KT P6SM FEW030 SCT050=
METAR PHMK
WC PHMK
WS PHMK
WV PHMK